sensor_id;sensor_type;location;lat;lon;timestamp;temperature;humidity
14031;DHT22;7090;49.436;8.490;2022-08-20T00:00:20;20.80;92.70
14031;DHT22;7090;49.436;8.490;2022-08-20T00:02:50;20.80;99.90
14031;DHT22;7090;49.436;8.490;2022-08-20T00:05:25;20.90;97.40
14031;DHT22;7090;49.436;8.490;2022-08-20T00:07:50;21.10;1.00
14031;DHT22;7090;49.436;8.490;2022-08-20T00:10:17;21.20;1.00
14031;DHT22;7090;49.436;8.490;2022-08-20T00:12:44;21.20;1.00
14031;DHT22;7090;49.436;8.490;2022-08-20T00:15:10;21.00;1.00
14031;DHT22;7090;49.436;8.490;2022-08-20T00:17:37;21.00;23.10
14031;DHT22;7090;49.436;8.490;2022-08-20T00:20:10;21.10;1.10
14031;DHT22;7090;49.436;8.490;2022-08-20T00:22:36;21.00;1.00
14031;DHT22;7090;49.436;8.490;2022-08-20T00:25:04;21.00;24.70
14031;DHT22;7090;49.436;8.490;2022-08-20T00:27:29;20.90;37.40
14031;DHT22;7090;49.436;8.490;2022-08-20T00:29:55;20.80;50.50
14031;DHT22;7090;49.436;8.490;2022-08-20T00:32:21;20.70;99.90
14031;DHT22;7090;49.436;8.490;2022-08-20T00:34:46;20.60;99.90
14031;DHT22;7090;49.436;8.490;2022-08-20T00:37:12;20.60;99.90
14031;DHT22;7090;49.436;8.490;2022-08-20T00:39:38;20.70;99.90
14031;DHT22;7090;49.436;8.490;2022-08-20T00:42:04;20.70;99.90
14031;DHT22;7090;49.436;8.490;2022-08-20T00:44:30;20.70;99.90
14031;DHT22;7090;49.436;8.490;2022-08-20T00:46:55;20.70;99.90
14031;DHT22;7090;49.436;8.490;2022-08-20T00:49:31;20.70;99.90
14031;DHT22;7090;49.436;8.490;2022-08-20T00:52:01;20.70;99.90
14031;DHT22;7090;49.436;8.490;2022-08-20T00:57:20;20.80;99.90
14031;DHT22;7090;49.436;8.490;2022-08-20T00:59:46;20.80;99.90
14031;DHT22;7090;49.436;8.490;2022-08-20T01:02:16;20.60;99.90
14031;DHT22;7090;49.436;8.490;2022-08-20T01:04:43;20.60;99.90
14031;DHT22;7090;49.436;8.490;2022-08-20T01:07:23;20.50;99.90
14031;DHT22;7090;49.436;8.490;2022-08-20T01:09:58;20.40;1.00
14031;DHT22;7090;49.436;8.490;2022-08-20T01:12:24;20.20;1.00
14031;DHT22;7090;49.436;8.490;2022-08-20T01:14:51;20.10;1.00
14031;DHT22;7090;49.436;8.490;2022-08-20T01:17:23;20.00;1.00
14031;DHT22;7090;49.436;8.490;2022-08-20T01:19:56;20.00;1.00
14031;DHT22;7090;49.436;8.490;2022-08-20T01:22:31;20.00;1.00
14031;DHT22;7090;49.436;8.490;2022-08-20T01:28:13;20.30;1.00
14031;DHT22;7090;49.436;8.490;2022-08-20T01:30:41;20.50;1.00
14031;DHT22;7090;49.436;8.490;2022-08-20T01:33:07;20.50;1.00
14031;DHT22;7090;49.436;8.490;2022-08-20T01:35:40;20.60;1.00
14031;DHT22;7090;49.436;8.490;2022-08-20T01:38:07;20.60;1.00
14031;DHT22;7090;49.436;8.490;2022-08-20T01:43:14;20.50;1.00
14031;DHT22;7090;49.436;8.490;2022-08-20T01:45:40;20.50;1.00
14031;DHT22;7090;49.436;8.490;2022-08-20T01:48:06;20.50;1.00
14031;DHT22;7090;49.436;8.490;2022-08-20T01:50:34;20.30;1.00
14031;DHT22;7090;49.436;8.490;2022-08-20T01:53:17;20.00;1.00
14031;DHT22;7090;49.436;8.490;2022-08-20T01:55:43;20.00;1.00
14031;DHT22;7090;49.436;8.490;2022-08-20T01:58:09;20.00;1.00
14031;DHT22;7090;49.436;8.490;2022-08-20T02:00:35;20.20;1.00
14031;DHT22;7090;49.436;8.490;2022-08-20T02:03:01;20.20;1.00
14031;DHT22;7090;49.436;8.490;2022-08-20T02:05:30;20.20;1.00
14031;DHT22;7090;49.436;8.490;2022-08-20T02:07:57;20.10;1.00
14031;DHT22;7090;49.436;8.490;2022-08-20T02:10:24;20.00;1.00
14031;DHT22;7090;49.436;8.490;2022-08-20T02:12:49;20.00;1.00
14031;DHT22;7090;49.436;8.490;2022-08-20T02:15:15;20.00;1.00
14031;DHT22;7090;49.436;8.490;2022-08-20T02:17:41;20.00;1.00
14031;DHT22;7090;49.436;8.490;2022-08-20T02:20:17;20.20;1.00
14031;DHT22;7090;49.436;8.490;2022-08-20T02:22:49;20.40;1.00
14031;DHT22;7090;49.436;8.490;2022-08-20T02:25:18;20.50;1.00
14031;DHT22;7090;49.436;8.490;2022-08-20T02:27:45;20.40;1.00
14031;DHT22;7090;49.436;8.490;2022-08-20T02:30:17;20.50;1.00
14031;DHT22;7090;49.436;8.490;2022-08-20T02:32:45;20.60;1.00
14031;DHT22;7090;49.436;8.490;2022-08-20T02:35:11;20.50;1.00
14031;DHT22;7090;49.436;8.490;2022-08-20T02:37:39;20.50;1.00
14031;DHT22;7090;49.436;8.490;2022-08-20T02:40:07;20.50;1.00
14031;DHT22;7090;49.436;8.490;2022-08-20T02:42:34;20.50;1.00
14031;DHT22;7090;49.436;8.490;2022-08-20T02:45:01;20.50;1.00
14031;DHT22;7090;49.436;8.490;2022-08-20T02:47:26;20.60;1.00
14031;DHT22;7090;49.436;8.490;2022-08-20T02:49:53;20.80;1.00
14031;DHT22;7090;49.436;8.490;2022-08-20T02:52:20;20.80;1.00
14031;DHT22;7090;49.436;8.490;2022-08-20T02:54:46;20.90;1.00
14031;DHT22;7090;49.436;8.490;2022-08-20T02:57:18;20.80;1.00
14031;DHT22;7090;49.436;8.490;2022-08-20T02:59:49;20.70;1.00
14031;DHT22;7090;49.436;8.490;2022-08-20T03:02:16;20.60;1.00
14031;DHT22;7090;49.436;8.490;2022-08-20T03:04:43;20.50;1.00
14031;DHT22;7090;49.436;8.490;2022-08-20T03:07:10;20.40;28.60
14031;DHT22;7090;49.436;8.490;2022-08-20T03:09:37;20.40;99.90
14031;DHT22;7090;49.436;8.490;2022-08-20T03:12:04;20.20;99.90
14031;DHT22;7090;49.436;8.490;2022-08-20T03:14:29;20.30;99.90
14031;DHT22;7090;49.436;8.490;2022-08-20T03:16:55;20.40;99.90
14031;DHT22;7090;49.436;8.490;2022-08-20T03:19:21;20.40;99.90
14031;DHT22;7090;49.436;8.490;2022-08-20T03:21:47;20.20;99.90
14031;DHT22;7090;49.436;8.490;2022-08-20T03:24:13;20.20;99.90
14031;DHT22;7090;49.436;8.490;2022-08-20T03:26:39;20.10;99.90
14031;DHT22;7090;49.436;8.490;2022-08-20T03:29:05;20.20;99.90
14031;DHT22;7090;49.436;8.490;2022-08-20T03:31:30;20.20;99.90
14031;DHT22;7090;49.436;8.490;2022-08-20T03:33:56;20.30;99.90
14031;DHT22;7090;49.436;8.490;2022-08-20T03:36:23;20.20;99.90
14031;DHT22;7090;49.436;8.490;2022-08-20T03:38:49;20.20;99.90
14031;DHT22;7090;49.436;8.490;2022-08-20T03:41:15;20.30;99.90
14031;DHT22;7090;49.436;8.490;2022-08-20T03:43:41;20.40;99.90
14031;DHT22;7090;49.436;8.490;2022-08-20T03:46:07;20.40;99.90
14031;DHT22;7090;49.436;8.490;2022-08-20T03:48:33;20.40;99.90
14031;DHT22;7090;49.436;8.490;2022-08-20T03:50:59;20.40;99.90
14031;DHT22;7090;49.436;8.490;2022-08-20T03:53:27;20.40;99.90
14031;DHT22;7090;49.436;8.490;2022-08-20T03:55:58;20.40;99.90
14031;DHT22;7090;49.436;8.490;2022-08-20T03:58:26;20.50;99.90
14031;DHT22;7090;49.436;8.490;2022-08-20T04:00:53;20.50;99.90
14031;DHT22;7090;49.436;8.490;2022-08-20T04:03:20;20.50;99.90
14031;DHT22;7090;49.436;8.490;2022-08-20T04:05:47;20.40;99.90
14031;DHT22;7090;49.436;8.490;2022-08-20T04:08:19;20.30;99.90
14031;DHT22;7090;49.436;8.490;2022-08-20T04:10:46;20.30;99.90
14031;DHT22;7090;49.436;8.490;2022-08-20T04:13:14;20.20;99.90
14031;DHT22;7090;49.436;8.490;2022-08-20T04:15:40;20.20;99.90
14031;DHT22;7090;49.436;8.490;2022-08-20T04:18:07;20.00;99.90
14031;DHT22;7090;49.436;8.490;2022-08-20T04:20:35;20.20;99.90
14031;DHT22;7090;49.436;8.490;2022-08-20T04:23:01;20.30;99.90
14031;DHT22;7090;49.436;8.490;2022-08-20T04:25:28;20.40;99.90
14031;DHT22;7090;49.436;8.490;2022-08-20T04:27:57;20.40;99.90
14031;DHT22;7090;49.436;8.490;2022-08-20T04:30:22;20.30;99.90
14031;DHT22;7090;49.436;8.490;2022-08-20T04:32:50;20.30;99.90
14031;DHT22;7090;49.436;8.490;2022-08-20T04:35:16;20.30;99.90
14031;DHT22;7090;49.436;8.490;2022-08-20T04:37:46;20.30;99.90
14031;DHT22;7090;49.436;8.490;2022-08-20T04:40:16;20.30;99.90
14031;DHT22;7090;49.436;8.490;2022-08-20T04:43:01;20.40;99.90
14031;DHT22;7090;49.436;8.490;2022-08-20T04:45:29;20.50;99.90
14031;DHT22;7090;49.436;8.490;2022-08-20T04:47:55;20.50;99.90
14031;DHT22;7090;49.436;8.490;2022-08-20T04:50:21;20.40;99.90
14031;DHT22;7090;49.436;8.490;2022-08-20T04:52:47;20.40;99.90
14031;DHT22;7090;49.436;8.490;2022-08-20T04:55:16;20.40;99.90
14031;DHT22;7090;49.436;8.490;2022-08-20T04:57:43;20.30;99.90
14031;DHT22;7090;49.436;8.490;2022-08-20T05:00:13;20.30;99.90
14031;DHT22;7090;49.436;8.490;2022-08-20T05:02:39;20.30;99.90
14031;DHT22;7090;49.436;8.490;2022-08-20T05:05:07;20.30;99.90
14031;DHT22;7090;49.436;8.490;2022-08-20T05:07:38;20.20;99.90
14031;DHT22;7090;49.436;8.490;2022-08-20T05:10:06;20.10;99.90
14031;DHT22;7090;49.436;8.490;2022-08-20T05:12:32;20.20;99.90
14031;DHT22;7090;49.436;8.490;2022-08-20T05:14:57;20.30;99.90
14031;DHT22;7090;49.436;8.490;2022-08-20T05:17:23;20.30;99.90
14031;DHT22;7090;49.436;8.490;2022-08-20T05:19:51;20.50;99.90
14031;DHT22;7090;49.436;8.490;2022-08-20T05:22:16;20.60;99.90
14031;DHT22;7090;49.436;8.490;2022-08-20T05:24:43;20.80;99.90
14031;DHT22;7090;49.436;8.490;2022-08-20T05:27:08;20.90;99.90
14031;DHT22;7090;49.436;8.490;2022-08-20T05:29:34;20.80;99.90
14031;DHT22;7090;49.436;8.490;2022-08-20T05:32:00;20.80;99.90
14031;DHT22;7090;49.436;8.490;2022-08-20T05:34:26;20.90;99.90
14031;DHT22;7090;49.436;8.490;2022-08-20T05:36:51;21.10;99.90
14031;DHT22;7090;49.436;8.490;2022-08-20T05:39:19;20.90;99.90
14031;DHT22;7090;49.436;8.490;2022-08-20T05:41:45;21.10;99.90
14031;DHT22;7090;49.436;8.490;2022-08-20T05:44:12;21.10;99.90
14031;DHT22;7090;49.436;8.490;2022-08-20T05:46:38;21.10;99.90
14031;DHT22;7090;49.436;8.490;2022-08-20T05:49:08;21.20;99.90
14031;DHT22;7090;49.436;8.490;2022-08-20T05:51:34;21.30;99.90
14031;DHT22;7090;49.436;8.490;2022-08-20T05:54:01;21.40;51.00
14031;DHT22;7090;49.436;8.490;2022-08-20T05:56:28;21.40;9.90
14031;DHT22;7090;49.436;8.490;2022-08-20T05:58:54;21.50;23.50
14031;DHT22;7090;49.436;8.490;2022-08-20T06:01:20;21.40;99.90
14031;DHT22;7090;49.436;8.490;2022-08-20T06:03:46;21.40;99.90
14031;DHT22;7090;49.436;8.490;2022-08-20T06:06:30;21.40;99.90
14031;DHT22;7090;49.436;8.490;2022-08-20T06:08:56;21.30;99.90
14031;DHT22;7090;49.436;8.490;2022-08-20T06:11:21;21.30;99.90
14031;DHT22;7090;49.436;8.490;2022-08-20T06:13:47;21.40;99.90
14031;DHT22;7090;49.436;8.490;2022-08-20T06:16:13;21.50;99.90
14031;DHT22;7090;49.436;8.490;2022-08-20T06:18:38;21.40;99.90
14031;DHT22;7090;49.436;8.490;2022-08-20T06:21:04;21.40;99.90
14031;DHT22;7090;49.436;8.490;2022-08-20T06:23:30;21.60;99.90
14031;DHT22;7090;49.436;8.490;2022-08-20T06:25:56;21.80;21.70
14031;DHT22;7090;49.436;8.490;2022-08-20T06:28:21;21.90;1.00
14031;DHT22;7090;49.436;8.490;2022-08-20T06:30:47;22.00;1.00
14031;DHT22;7090;49.436;8.490;2022-08-20T06:33:13;22.20;1.00
14031;DHT22;7090;49.436;8.490;2022-08-20T06:35:39;22.50;1.00
14031;DHT22;7090;49.436;8.490;2022-08-20T06:38:05;22.60;1.00
14031;DHT22;7090;49.436;8.490;2022-08-20T06:40:31;22.70;1.00
14031;DHT22;7090;49.436;8.490;2022-08-20T06:42:58;22.90;1.00
14031;DHT22;7090;49.436;8.490;2022-08-20T06:45:27;22.80;1.00
14031;DHT22;7090;49.436;8.490;2022-08-20T06:47:55;22.80;1.00
14031;DHT22;7090;49.436;8.490;2022-08-20T06:50:31;23.00;1.00
14031;DHT22;7090;49.436;8.490;2022-08-20T06:52:58;23.30;1.00
14031;DHT22;7090;49.436;8.490;2022-08-20T06:55:25;23.40;1.00
14031;DHT22;7090;49.436;8.490;2022-08-20T06:58:03;23.50;1.00
14031;DHT22;7090;49.436;8.490;2022-08-20T07:00:30;23.40;1.00
14031;DHT22;7090;49.436;8.490;2022-08-20T07:02:58;23.20;1.00
14031;DHT22;7090;49.436;8.490;2022-08-20T07:05:26;23.20;1.00
14031;DHT22;7090;49.436;8.490;2022-08-20T07:07:52;23.20;1.00
14031;DHT22;7090;49.436;8.490;2022-08-20T07:10:20;23.30;1.00
14031;DHT22;7090;49.436;8.490;2022-08-20T07:12:47;23.40;1.00
14031;DHT22;7090;49.436;8.490;2022-08-20T07:15:14;23.60;1.00
14031;DHT22;7090;49.436;8.490;2022-08-20T07:17:40;23.80;99.90
14031;DHT22;7090;49.436;8.490;2022-08-20T07:20:11;23.90;99.90
14031;DHT22;7090;49.436;8.490;2022-08-20T07:22:37;23.90;99.90
14031;DHT22;7090;49.436;8.490;2022-08-20T07:25:04;23.80;99.90
14031;DHT22;7090;49.436;8.490;2022-08-20T07:27:30;23.60;99.90
14031;DHT22;7090;49.436;8.490;2022-08-20T07:29:56;23.70;99.90
14031;DHT22;7090;49.436;8.490;2022-08-20T07:32:41;23.70;99.90
14031;DHT22;7090;49.436;8.490;2022-08-20T07:35:10;23.80;99.90
14031;DHT22;7090;49.436;8.490;2022-08-20T07:37:41;23.80;99.90
14031;DHT22;7090;49.436;8.490;2022-08-20T07:40:11;23.90;99.90
14031;DHT22;7090;49.436;8.490;2022-08-20T07:42:37;23.90;1.00
14031;DHT22;7090;49.436;8.490;2022-08-20T07:45:08;23.70;1.00
14031;DHT22;7090;49.436;8.490;2022-08-20T07:47:39;23.50;99.90
14031;DHT22;7090;49.436;8.490;2022-08-20T07:50:10;23.40;99.90
14031;DHT22;7090;49.436;8.490;2022-08-20T07:52:36;23.30;1.00
14031;DHT22;7090;49.436;8.490;2022-08-20T07:55:08;23.20;1.00
14031;DHT22;7090;49.436;8.490;2022-08-20T07:57:34;23.10;1.00
14031;DHT22;7090;49.436;8.490;2022-08-20T07:59:59;23.00;1.00
14031;DHT22;7090;49.436;8.490;2022-08-20T08:02:26;23.00;1.00
14031;DHT22;7090;49.436;8.490;2022-08-20T08:04:52;22.90;1.00
14031;DHT22;7090;49.436;8.490;2022-08-20T08:07:18;23.00;1.00
14031;DHT22;7090;49.436;8.490;2022-08-20T08:09:44;23.10;1.00
14031;DHT22;7090;49.436;8.490;2022-08-20T08:12:11;23.20;99.90
14031;DHT22;7090;49.436;8.490;2022-08-20T08:14:39;23.20;99.90
14031;DHT22;7090;49.436;8.490;2022-08-20T08:17:06;23.20;99.90
14031;DHT22;7090;49.436;8.490;2022-08-20T08:19:36;23.40;99.90
14031;DHT22;7090;49.436;8.490;2022-08-20T08:22:09;23.60;99.90
14031;DHT22;7090;49.436;8.490;2022-08-20T08:24:37;23.80;99.90
14031;DHT22;7090;49.436;8.490;2022-08-20T08:27:02;23.90;99.90
14031;DHT22;7090;49.436;8.490;2022-08-20T08:29:28;23.90;99.90
14031;DHT22;7090;49.436;8.490;2022-08-20T08:31:54;23.60;99.90
14031;DHT22;7090;49.436;8.490;2022-08-20T08:34:20;23.50;99.90
14031;DHT22;7090;49.436;8.490;2022-08-20T08:36:49;23.40;99.90
14031;DHT22;7090;49.436;8.490;2022-08-20T08:39:15;23.50;99.90
14031;DHT22;7090;49.436;8.490;2022-08-20T08:41:44;23.70;99.90
14031;DHT22;7090;49.436;8.490;2022-08-20T08:44:20;23.60;99.90
14031;DHT22;7090;49.436;8.490;2022-08-20T08:46:50;23.40;99.90
14031;DHT22;7090;49.436;8.490;2022-08-20T08:49:23;23.40;99.90
14031;DHT22;7090;49.436;8.490;2022-08-20T08:54:28;23.50;99.90
14031;DHT22;7090;49.436;8.490;2022-08-20T08:56:54;23.90;99.90
14031;DHT22;7090;49.436;8.490;2022-08-20T08:59:21;23.80;99.90
14031;DHT22;7090;49.436;8.490;2022-08-20T09:01:53;23.90;99.90
14031;DHT22;7090;49.436;8.490;2022-08-20T09:04:20;24.10;71.80
14031;DHT22;7090;49.436;8.490;2022-08-20T09:06:47;24.00;61.60
14031;DHT22;7090;49.436;8.490;2022-08-20T09:09:20;23.80;99.90
14031;DHT22;7090;49.436;8.490;2022-08-20T09:11:50;23.90;99.90
14031;DHT22;7090;49.436;8.490;2022-08-20T09:14:18;24.00;99.90
14031;DHT22;7090;49.436;8.490;2022-08-20T09:16:44;24.00;30.20
14031;DHT22;7090;49.436;8.490;2022-08-20T09:19:10;23.90;96.50
14031;DHT22;7090;49.436;8.490;2022-08-20T09:21:36;23.90;99.90
14031;DHT22;7090;49.436;8.490;2022-08-20T09:24:02;23.90;99.90
14031;DHT22;7090;49.436;8.490;2022-08-20T09:26:29;24.40;31.30
14031;DHT22;7090;49.436;8.490;2022-08-20T09:28:55;24.30;1.00
14031;DHT22;7090;49.436;8.490;2022-08-20T09:31:20;24.90;1.00
14031;DHT22;7090;49.436;8.490;2022-08-20T09:33:49;25.00;1.00
14031;DHT22;7090;49.436;8.490;2022-08-20T09:36:14;24.50;1.00
14031;DHT22;7090;49.436;8.490;2022-08-20T09:38:40;24.70;1.00
14031;DHT22;7090;49.436;8.490;2022-08-20T09:41:05;24.70;1.00
14031;DHT22;7090;49.436;8.490;2022-08-20T09:43:31;25.30;1.00
14031;DHT22;7090;49.436;8.490;2022-08-20T09:45:56;25.80;1.00
14031;DHT22;7090;49.436;8.490;2022-08-20T09:48:22;26.20;1.00
14031;DHT22;7090;49.436;8.490;2022-08-20T09:50:48;26.40;1.00
14031;DHT22;7090;49.436;8.490;2022-08-20T09:53:15;26.50;1.00
14031;DHT22;7090;49.436;8.490;2022-08-20T09:55:43;26.30;99.90
14031;DHT22;7090;49.436;8.490;2022-08-20T10:01:00;26.30;99.90
14031;DHT22;7090;49.436;8.490;2022-08-20T10:03:27;26.70;99.90
14031;DHT22;7090;49.436;8.490;2022-08-20T10:05:53;27.20;99.90
14031;DHT22;7090;49.436;8.490;2022-08-20T10:08:18;27.50;5.50
14031;DHT22;7090;49.436;8.490;2022-08-20T10:10:44;27.90;52.30
14031;DHT22;7090;49.436;8.490;2022-08-20T10:13:09;28.20;1.00
14031;DHT22;7090;49.436;8.490;2022-08-20T10:15:35;28.40;50.60
14031;DHT22;7090;49.436;8.490;2022-08-20T10:18:04;28.40;1.00
14031;DHT22;7090;49.436;8.490;2022-08-20T10:20:32;28.00;99.90
14031;DHT22;7090;49.436;8.490;2022-08-20T10:22:57;28.50;99.90
14031;DHT22;7090;49.436;8.490;2022-08-20T10:25:23;28.80;1.00
14031;DHT22;7090;49.436;8.490;2022-08-20T10:27:49;28.90;1.00
14031;DHT22;7090;49.436;8.490;2022-08-20T10:30:14;28.40;1.00
14031;DHT22;7090;49.436;8.490;2022-08-20T10:32:40;28.00;99.90
14031;DHT22;7090;49.436;8.490;2022-08-20T10:35:07;28.10;99.90
14031;DHT22;7090;49.436;8.490;2022-08-20T10:37:33;28.30;83.70
14031;DHT22;7090;49.436;8.490;2022-08-20T10:39:59;28.60;99.90
14031;DHT22;7090;49.436;8.490;2022-08-20T10:42:25;29.20;1.00
14031;DHT22;7090;49.436;8.490;2022-08-20T10:44:50;29.70;1.00
14031;DHT22;7090;49.436;8.490;2022-08-20T10:49:45;30.00;99.90
14031;DHT22;7090;49.436;8.490;2022-08-20T10:52:10;29.60;99.90
14031;DHT22;7090;49.436;8.490;2022-08-20T10:54:36;29.50;99.90
14031;DHT22;7090;49.436;8.490;2022-08-20T10:57:06;29.50;99.90
14031;DHT22;7090;49.436;8.490;2022-08-20T10:59:33;29.00;99.90
14031;DHT22;7090;49.436;8.490;2022-08-20T11:02:01;28.70;52.00
14031;DHT22;7090;49.436;8.490;2022-08-20T11:04:27;28.50;99.90
14031;DHT22;7090;49.436;8.490;2022-08-20T11:06:52;29.10;1.00
14031;DHT22;7090;49.436;8.490;2022-08-20T11:09:18;29.30;1.00
14031;DHT22;7090;49.436;8.490;2022-08-20T11:11:43;29.80;99.90
14031;DHT22;7090;49.436;8.490;2022-08-20T11:14:09;30.40;99.90
14031;DHT22;7090;49.436;8.490;2022-08-20T11:16:35;31.30;99.90
14031;DHT22;7090;49.436;8.490;2022-08-20T11:19:00;32.30;1.00
14031;DHT22;7090;49.436;8.490;2022-08-20T11:21:26;32.80;99.90
14031;DHT22;7090;49.436;8.490;2022-08-20T11:23:51;31.70;1.00
14031;DHT22;7090;49.436;8.490;2022-08-20T11:26:21;31.40;1.00
14031;DHT22;7090;49.436;8.490;2022-08-20T11:28:48;31.00;99.90
14031;DHT22;7090;49.436;8.490;2022-08-20T11:31:13;30.60;1.00
14031;DHT22;7090;49.436;8.490;2022-08-20T11:33:39;31.00;1.00
14031;DHT22;7090;49.436;8.490;2022-08-20T11:36:05;31.80;99.90
14031;DHT22;7090;49.436;8.490;2022-08-20T11:38:30;31.50;1.00
14031;DHT22;7090;49.436;8.490;2022-08-20T11:40:56;30.90;1.00
14031;DHT22;7090;49.436;8.490;2022-08-20T11:43:22;29.40;1.00
14031;DHT22;7090;49.436;8.490;2022-08-20T11:45:50;29.30;1.00
14031;DHT22;7090;49.436;8.490;2022-08-20T11:48:17;30.40;1.00
14031;DHT22;7090;49.436;8.490;2022-08-20T11:50:43;30.70;1.00
14031;DHT22;7090;49.436;8.490;2022-08-20T11:53:09;31.40;99.90
14031;DHT22;7090;49.436;8.490;2022-08-20T11:55:35;31.70;99.90
14031;DHT22;7090;49.436;8.490;2022-08-20T11:58:01;31.60;1.00
14031;DHT22;7090;49.436;8.490;2022-08-20T12:00:28;31.70;1.00
14031;DHT22;7090;49.436;8.490;2022-08-20T12:02:54;31.80;99.90
14031;DHT22;7090;49.436;8.490;2022-08-20T12:05:20;31.60;1.00
14031;DHT22;7090;49.436;8.490;2022-08-20T12:07:45;32.10;1.00
14031;DHT22;7090;49.436;8.490;2022-08-20T12:10:12;32.60;99.90
14031;DHT22;7090;49.436;8.490;2022-08-20T12:12:38;31.40;99.90
14031;DHT22;7090;49.436;8.490;2022-08-20T12:15:06;30.60;1.00
14031;DHT22;7090;49.436;8.490;2022-08-20T12:17:33;30.40;99.90
14031;DHT22;7090;49.436;8.490;2022-08-20T12:20:00;30.80;1.00
14031;DHT22;7090;49.436;8.490;2022-08-20T12:22:26;31.10;1.00
14031;DHT22;7090;49.436;8.490;2022-08-20T12:24:52;32.30;1.00
14031;DHT22;7090;49.436;8.490;2022-08-20T12:27:24;32.10;1.00
14031;DHT22;7090;49.436;8.490;2022-08-20T12:29:52;32.40;1.00
14031;DHT22;7090;49.436;8.490;2022-08-20T12:32:22;32.60;1.00
14031;DHT22;7090;49.436;8.490;2022-08-20T12:34:49;32.10;1.00
14031;DHT22;7090;49.436;8.490;2022-08-20T12:37:17;32.30;1.00
14031;DHT22;7090;49.436;8.490;2022-08-20T12:39:46;31.60;99.90
14031;DHT22;7090;49.436;8.490;2022-08-20T12:42:12;31.50;99.90
14031;DHT22;7090;49.436;8.490;2022-08-20T12:44:39;32.10;1.00
14031;DHT22;7090;49.436;8.490;2022-08-20T12:49:40;30.20;1.00
14031;DHT22;7090;49.436;8.490;2022-08-20T12:52:06;30.30;1.00
14031;DHT22;7090;49.436;8.490;2022-08-20T12:54:32;31.10;28.80
14031;DHT22;7090;49.436;8.490;2022-08-20T12:56:58;30.70;1.00
14031;DHT22;7090;49.436;8.490;2022-08-20T12:59:24;31.20;99.90
14031;DHT22;7090;49.436;8.490;2022-08-20T13:01:51;32.20;99.90
14031;DHT22;7090;49.436;8.490;2022-08-20T13:04:18;32.70;1.00
14031;DHT22;7090;49.436;8.490;2022-08-20T13:06:43;33.30;99.90
14031;DHT22;7090;49.436;8.490;2022-08-20T13:09:09;33.90;1.00
14031;DHT22;7090;49.436;8.490;2022-08-20T13:11:35;34.20;99.90
14031;DHT22;7090;49.436;8.490;2022-08-20T13:14:00;33.00;99.90
14031;DHT22;7090;49.436;8.490;2022-08-20T13:16:26;32.90;1.00
14031;DHT22;7090;49.436;8.490;2022-08-20T13:18:52;31.60;99.90
14031;DHT22;7090;49.436;8.490;2022-08-20T13:21:17;32.40;99.90
14031;DHT22;7090;49.436;8.490;2022-08-20T13:23:43;32.80;99.90
14031;DHT22;7090;49.436;8.490;2022-08-20T13:26:08;33.20;99.90
14031;DHT22;7090;49.436;8.490;2022-08-20T13:28:34;33.60;99.90
14031;DHT22;7090;49.436;8.490;2022-08-20T13:31:00;33.20;1.00
14031;DHT22;7090;49.436;8.490;2022-08-20T13:33:27;33.40;1.00
14031;DHT22;7090;49.436;8.490;2022-08-20T13:35:53;34.00;1.00
14031;DHT22;7090;49.436;8.490;2022-08-20T13:38:19;33.60;1.00
14031;DHT22;7090;49.436;8.490;2022-08-20T13:40:45;33.20;1.00
14031;DHT22;7090;49.436;8.490;2022-08-20T13:43:11;32.30;1.00
14031;DHT22;7090;49.436;8.490;2022-08-20T13:45:37;32.00;1.00
14031;DHT22;7090;49.436;8.490;2022-08-20T13:48:05;32.30;1.00
14031;DHT22;7090;49.436;8.490;2022-08-20T13:50:31;32.70;1.00
14031;DHT22;7090;49.436;8.490;2022-08-20T13:52:57;33.00;1.00
14031;DHT22;7090;49.436;8.490;2022-08-20T13:55:24;32.80;1.00
14031;DHT22;7090;49.436;8.490;2022-08-20T13:57:51;32.70;99.90
14031;DHT22;7090;49.436;8.490;2022-08-20T14:00:28;32.80;1.00
14031;DHT22;7090;49.436;8.490;2022-08-20T14:02:54;33.00;1.00
14031;DHT22;7090;49.436;8.490;2022-08-20T14:05:19;32.70;99.90
14031;DHT22;7090;49.436;8.490;2022-08-20T14:07:45;31.40;1.00
14031;DHT22;7090;49.436;8.490;2022-08-20T14:10:20;32.20;1.00
14031;DHT22;7090;49.436;8.490;2022-08-20T14:12:48;31.40;99.90
14031;DHT22;7090;49.436;8.490;2022-08-20T14:15:14;30.70;99.90
14031;DHT22;7090;49.436;8.490;2022-08-20T14:17:49;31.30;99.90
14031;DHT22;7090;49.436;8.490;2022-08-20T14:20:18;32.00;1.00
14031;DHT22;7090;49.436;8.490;2022-08-20T14:22:44;32.20;1.00
14031;DHT22;7090;49.436;8.490;2022-08-20T14:25:12;32.40;99.90
14031;DHT22;7090;49.436;8.490;2022-08-20T14:27:38;32.30;99.90
14031;DHT22;7090;49.436;8.490;2022-08-20T14:30:07;31.90;99.90
14031;DHT22;7090;49.436;8.490;2022-08-20T14:32:33;32.10;99.90
14031;DHT22;7090;49.436;8.490;2022-08-20T14:34:59;32.60;99.90
14031;DHT22;7090;49.436;8.490;2022-08-20T14:37:31;32.90;99.90
14031;DHT22;7090;49.436;8.490;2022-08-20T14:39:59;32.90;99.90
14031;DHT22;7090;49.436;8.490;2022-08-20T14:42:26;32.90;99.90
14031;DHT22;7090;49.436;8.490;2022-08-20T14:44:53;32.70;1.00
14031;DHT22;7090;49.436;8.490;2022-08-20T14:47:22;32.60;99.90
14031;DHT22;7090;49.436;8.490;2022-08-20T14:49:49;32.30;99.90
14031;DHT22;7090;49.436;8.490;2022-08-20T14:52:16;32.40;99.90
14031;DHT22;7090;49.436;8.490;2022-08-20T14:54:42;33.10;1.00
14031;DHT22;7090;49.436;8.490;2022-08-20T14:57:09;33.20;1.00
14031;DHT22;7090;49.436;8.490;2022-08-20T14:59:35;33.20;1.00
14031;DHT22;7090;49.436;8.490;2022-08-20T15:02:04;32.90;99.90
14031;DHT22;7090;49.436;8.490;2022-08-20T15:04:31;32.80;99.90
14031;DHT22;7090;49.436;8.490;2022-08-20T15:06:57;32.10;99.90
14031;DHT22;7090;49.436;8.490;2022-08-20T15:09:22;31.70;99.90
14031;DHT22;7090;49.436;8.490;2022-08-20T15:11:48;31.70;1.00
14031;DHT22;7090;49.436;8.490;2022-08-20T15:14:14;32.70;99.90
14031;DHT22;7090;49.436;8.490;2022-08-20T15:16:40;33.30;47.70
14031;DHT22;7090;49.436;8.490;2022-08-20T15:19:05;33.40;99.90
14031;DHT22;7090;49.436;8.490;2022-08-20T15:21:31;33.50;99.90
14031;DHT22;7090;49.436;8.490;2022-08-20T15:23:57;33.90;33.40
14031;DHT22;7090;49.436;8.490;2022-08-20T15:26:22;34.00;1.00
14031;DHT22;7090;49.436;8.490;2022-08-20T15:28:48;33.90;1.00
14031;DHT22;7090;49.436;8.490;2022-08-20T15:31:13;33.40;1.00
14031;DHT22;7090;49.436;8.490;2022-08-20T15:33:40;33.10;1.00
14031;DHT22;7090;49.436;8.490;2022-08-20T15:36:08;32.10;1.00
14031;DHT22;7090;49.436;8.490;2022-08-20T15:38:34;32.00;1.00
14031;DHT22;7090;49.436;8.490;2022-08-20T15:41:01;32.20;1.00
14031;DHT22;7090;49.436;8.490;2022-08-20T15:43:29;31.80;1.00
14031;DHT22;7090;49.436;8.490;2022-08-20T15:45:56;31.90;1.00
14031;DHT22;7090;49.436;8.490;2022-08-20T15:48:34;31.70;1.00
14031;DHT22;7090;49.436;8.490;2022-08-20T15:53:54;31.60;1.00
14031;DHT22;7090;49.436;8.490;2022-08-20T15:59:20;32.50;1.00
14031;DHT22;7090;49.436;8.490;2022-08-20T16:07:09;31.90;1.00
14031;DHT22;7090;49.436;8.490;2022-08-20T16:09:45;31.50;1.00
14031;DHT22;7090;49.436;8.490;2022-08-20T16:12:21;30.80;1.00
14031;DHT22;7090;49.436;8.490;2022-08-20T16:14:50;30.20;1.00
14031;DHT22;7090;49.436;8.490;2022-08-20T16:17:25;30.00;1.00
14031;DHT22;7090;49.436;8.490;2022-08-20T16:22:29;29.90;1.00
14031;DHT22;7090;49.436;8.490;2022-08-20T16:24:55;29.80;1.00